createdAt,value
2019-05-05T00:01:22.019Z,79.69
2019-05-05T00:03:57.036Z,79.50
2019-05-05T00:06:24.994Z,79.68
2019-05-05T00:08:51.787Z,79.30
2019-05-05T00:11:27.484Z,79.09
2019-05-05T00:14:16.787Z,79.28
2019-05-05T00:16:54.728Z,80.02
2019-05-05T00:19:30.702Z,80.73
2019-05-05T00:21:50.183Z,81.03
2019-05-05T00:24:16.976Z,81.15
2019-05-05T00:26:45.918Z,81.13
2019-05-05T00:29:12.464Z,80.99
2019-05-05T00:31:39.250Z,81.30
2019-05-05T00:34:06.133Z,81.08
2019-05-05T00:36:35.057Z,81.05
2019-05-05T00:39:01.560Z,81.08
2019-05-05T00:41:28.321Z,81.58
2019-05-05T00:43:55.478Z,81.53
2019-05-05T00:46:35.175Z,81.72
2019-05-05T00:49:02.035Z,81.47
2019-05-05T00:51:28.711Z,81.49
2019-05-05T00:53:56.502Z,81.66
2019-05-05T00:56:25.026Z,81.98
2019-05-05T00:58:56.954Z,82.49
2019-05-05T01:01:41.385Z,82.59
2019-05-05T01:04:08.810Z,82.61
2019-05-05T01:06:35.709Z,82.94
2019-05-05T01:09:04.433Z,83.19
2019-05-05T01:11:31.215Z,83.68
2019-05-05T01:13:57.979Z,83.44
2019-05-05T01:16:24.860Z,83.82
2019-05-05T01:18:51.634Z,83.94
2019-05-05T01:21:18.425Z,83.81
2019-05-05T01:23:45.675Z,83.79
2019-05-05T01:26:14.259Z,83.49
2019-05-05T01:28:41.192Z,83.57
2019-05-05T01:31:14.543Z,83.62
2019-05-05T01:34:00.778Z,83.77
2019-05-05T01:36:27.692Z,83.65
2019-05-05T01:39:04.301Z,84.20
2019-05-05T01:41:38.008Z,84.30
2019-05-05T01:44:04.998Z,84.06
2019-05-05T01:46:32.059Z,84.16
2019-05-05T01:48:58.961Z,83.88
2019-05-05T01:51:26.092Z,84.41
2019-05-05T01:53:54.560Z,83.96
2019-05-05T01:56:21.447Z,84.19
2019-05-05T01:58:48.512Z,84.25
2019-05-05T02:01:15.361Z,84.32
2019-05-05T02:03:44.252Z,84.09
2019-05-05T02:06:11.109Z,84.02
2019-05-05T02:08:37.871Z,84.17
2019-05-05T02:11:05.303Z,84.37
2019-05-05T02:13:32.068Z,84.33
2019-05-05T02:15:58.910Z,84.29
2019-05-05T02:18:25.675Z,84.33
2019-05-05T02:21:01.678Z,84.95
2019-05-05T02:23:28.448Z,85.04
2019-05-05T02:25:55.423Z,85.33
2019-05-05T02:28:24.131Z,85.12
2019-05-05T02:31:05.845Z,85.62
2019-05-05T02:33:35.364Z,85.90
2019-05-05T02:36:01.330Z,85.76
2019-05-05T02:38:28.107Z,85.38
2019-05-05T02:40:55.728Z,85.47
2019-05-05T02:43:25.036Z,85.68
2019-05-05T02:46:05.556Z,85.76
2019-05-05T02:48:35.527Z,86.02
2019-05-05T02:51:06.699Z,85.97
2019-05-05T02:53:39.087Z,85.92
2019-05-05T02:56:14.620Z,85.97
2019-05-05T02:58:41.662Z,85.80
2019-05-05T03:01:26.839Z,85.68
2019-05-05T03:03:54.403Z,85.26
2019-05-05T03:06:21.253Z,84.97
2019-05-05T03:08:48.706Z,85.20
2019-05-05T03:11:15.926Z,84.97
2019-05-05T03:13:46.291Z,85.17
2019-05-05T03:16:15.964Z,85.41
2019-05-05T03:18:43.966Z,85.73
2019-05-05T03:21:10.968Z,85.60
2019-05-05T03:23:37.819Z,85.77
2019-05-05T03:26:05.326Z,85.75
2019-05-05T03:28:44.738Z,86.07
2019-05-05T03:31:15.811Z,86.41
2019-05-05T03:33:41.697Z,86.51
2019-05-05T03:36:08.689Z,86.48
2019-05-05T03:38:35.589Z,86.27
2019-05-05T03:41:29.732Z,86.26
2019-05-05T03:44:09.868Z,86.25
2019-05-05T03:46:36.975Z,86.17
2019-05-05T03:49:05.436Z,86.35
2019-05-05T03:51:34.371Z,86.17
2019-05-05T03:54:01.829Z,86.16
2019-05-05T03:56:28.632Z,85.99
2019-05-05T03:58:58.296Z,85.92
2019-05-05T04:01:59.067Z,86.09
2019-05-05T04:04:30.304Z,86.20
2019-05-05T04:06:57.943Z,86.38
2019-05-05T04:09:25.106Z,86.49
2019-05-05T04:11:53.939Z,86.31
2019-05-05T04:14:24.694Z,86.29
2019-05-05T04:17:08.360Z,86.03
2019-05-05T04:19:36.547Z,85.94
2019-05-05T04:22:04.243Z,85.95
2019-05-05T04:24:34.034Z,85.67
2019-05-05T04:27:00.706Z,85.58
2019-05-05T04:29:27.501Z,85.72
2019-05-05T04:31:54.298Z,85.20
2019-05-05T04:34:21.071Z,84.81
2019-05-05T04:36:48.164Z,84.96
2019-05-05T04:39:17.684Z,84.66
2019-05-05T04:41:44.486Z,84.51
2019-05-05T04:44:11.289Z,84.43
2019-05-05T04:46:38.261Z,84.51
2019-05-05T04:49:15.233Z,84.47
2019-05-05T04:51:49.452Z,84.27
2019-05-05T04:54:38.216Z,84.56
2019-05-05T04:57:05.059Z,83.44
2019-05-05T04:59:33.891Z,81.42
2019-05-05T05:02:04.401Z,80.63
2019-05-05T05:04:40.239Z,80.33
2019-05-05T05:07:08.985Z,79.21
2019-05-05T05:09:35.745Z,79.91
2019-05-05T05:12:04.013Z,79.38
2019-05-05T05:14:33.549Z,78.22
2019-05-05T05:17:03.480Z,77.92
2019-05-05T05:19:30.138Z,77.92
2019-05-05T05:22:01.721Z,78.41
2019-05-05T05:24:25.296Z,77.85
2019-05-05T05:26:52.068Z,76.57
2019-05-05T05:29:18.646Z,76.53
2019-05-05T05:31:45.440Z,74.25
2019-05-05T05:34:12.217Z,72.85
2019-05-05T05:36:39.020Z,71.04
2019-05-05T05:39:13.986Z,70.35
2019-05-05T05:41:44.553Z,70.35
2019-05-05T05:44:33.505Z,70.35
2019-05-05T05:47:24.451Z,70.16
2019-05-05T05:49:57.493Z,69.97
2019-05-05T05:52:24.383Z,66.83
2019-05-05T05:54:51.156Z,66.83
2019-05-05T05:57:17.921Z,64.30
2019-05-05T05:59:44.603Z,64.25
2019-05-05T06:02:15.388Z,63.94
2019-05-05T06:04:41.075Z,61.50
2019-05-05T06:07:07.653Z,61.22
2019-05-05T06:09:34.633Z,61.04
2019-05-05T06:12:03.450Z,62.23
2019-05-05T06:14:30.222Z,62.48
2019-05-05T06:16:56.981Z,61.37
2019-05-05T06:19:24.618Z,59.25
2019-05-05T06:21:51.881Z,60.66
2019-05-05T06:24:18.556Z,60.87
2019-05-05T06:26:45.172Z,58.89
2019-05-05T06:29:11.926Z,60.35
2019-05-05T06:31:38.750Z,61.73
2019-05-05T06:34:05.516Z,62.82
2019-05-05T06:36:34.093Z,63.20
2019-05-05T06:39:04.571Z,64.96
2019-05-05T06:41:40.646Z,65.80
2019-05-05T06:44:24.715Z,67.10
2019-05-05T06:47:04.598Z,66.81
2019-05-05T06:49:31.453Z,61.36
2019-05-05T06:51:58.305Z,59.70
2019-05-05T06:54:25.013Z,61.82
2019-05-05T06:56:53.753Z,61.45
2019-05-05T06:59:20.543Z,61.52
2019-05-05T07:01:47.310Z,63.58
2019-05-05T07:04:14.069Z,64.01
2019-05-05T07:06:51.696Z,63.74
2019-05-05T07:09:09.552Z,61.98
2019-05-05T07:11:36.575Z,61.55
2019-05-05T07:14:03.790Z,57.50
2019-05-05T07:16:30.535Z,55.85
2019-05-05T07:18:57.211Z,50.31
2019-05-05T07:21:24.295Z,48.35
2019-05-05T07:23:51.109Z,42.07
2019-05-05T07:26:17.674Z,39.19
2019-05-05T07:28:44.867Z,36.05
2019-05-05T07:31:11.630Z,38.78
2019-05-05T07:33:38.410Z,43.56
2019-05-05T07:36:24.965Z,43.55
2019-05-05T07:38:51.828Z,44.91
2019-05-05T07:41:18.586Z,38.35
2019-05-05T07:43:45.379Z,37.63
2019-05-05T07:46:13.553Z,39.98
2019-05-05T07:48:40.719Z,39.72
2019-05-05T07:51:07.393Z,42.30
2019-05-05T07:53:33.997Z,43.09
2019-05-05T07:56:00.680Z,40.61
2019-05-05T07:58:27.447Z,38.05
2019-05-05T08:00:54.231Z,39.08
2019-05-05T08:03:21.008Z,39.57
2019-05-05T08:05:47.852Z,32.99
2019-05-05T08:08:14.735Z,31.37
2019-05-05T08:10:43.552Z,28.58
2019-05-05T08:13:10.231Z,32.48
2019-05-05T08:15:37.639Z,36.56
2019-05-05T08:18:16.695Z,37.28
2019-05-05T08:20:46.600Z,36.45
2019-05-05T08:23:31.742Z,38.79
2019-05-05T08:26:04.657Z,39.25
2019-05-05T08:28:45.068Z,33.08
2019-05-05T08:31:25.067Z,33.28
2019-05-05T08:33:51.827Z,34.23
2019-05-05T08:36:18.924Z,36.27
2019-05-05T08:38:45.617Z,35.42
2019-05-05T08:41:33.839Z,40.31
2019-05-05T08:44:00.725Z,41.12
2019-05-05T08:46:27.458Z,40.64
2019-05-05T08:48:54.138Z,40.43
2019-05-05T08:51:20.991Z,41.18
2019-05-05T08:53:48.501Z,41.00
2019-05-05T08:56:15.231Z,39.19
2019-05-05T08:58:43.833Z,37.73
2019-05-05T09:01:10.538Z,38.24
2019-05-05T09:03:37.341Z,38.00
2019-05-05T09:06:04.795Z,41.12
2019-05-05T09:08:31.616Z,44.14
2019-05-05T09:10:58.593Z,41.44
2019-05-05T09:13:25.395Z,30.08
2019-05-05T09:15:54.254Z,26.82
2019-05-05T09:18:20.767Z,24.04
2019-05-05T09:20:47.586Z,23.42
2019-05-05T09:23:14.879Z,23.99
2019-05-05T09:25:53.971Z,27.00
2019-05-05T09:28:28.107Z,27.83
2019-05-05T09:30:54.927Z,30.39
2019-05-05T09:33:21.936Z,27.90
2019-05-05T09:35:48.730Z,20.78
2019-05-05T09:38:16.130Z,17.72
2019-05-05T09:40:43.966Z,17.49
2019-05-05T09:43:10.917Z,18.80
2019-05-05T09:45:38.109Z,27.23
2019-05-05T09:48:05.199Z,34.22
2019-05-05T09:50:34.057Z,36.41
2019-05-05T09:53:00.683Z,37.42
2019-05-05T09:55:27.361Z,35.26
2019-05-05T09:57:54.152Z,35.58
2019-05-05T10:00:20.934Z,37.62
2019-05-05T10:02:47.751Z,39.38
2019-05-05T10:05:14.759Z,40.13
2019-05-05T10:07:41.540Z,42.06
2019-05-05T10:10:08.306Z,46.00
2019-05-05T10:12:35.097Z,49.26
2019-05-05T10:15:07.194Z,47.90
2019-05-05T10:17:33.518Z,49.02
2019-05-05T10:20:00.157Z,51.00
2019-05-05T10:22:26.851Z,51.75
2019-05-05T10:25:13.298Z,52.75
2019-05-05T10:27:45.035Z,51.14
2019-05-05T10:30:10.612Z,51.29
2019-05-05T10:32:37.336Z,51.44
2019-05-05T10:35:04.776Z,50.23
2019-05-05T10:37:31.756Z,46.87
2019-05-05T10:39:58.421Z,47.25
2019-05-05T10:42:44.863Z,46.21
2019-05-05T10:45:13.488Z,43.63
2019-05-05T10:47:40.128Z,40.40
2019-05-05T10:50:06.885Z,36.55
2019-05-05T10:52:33.806Z,32.32
2019-05-05T10:55:00.439Z,32.07
2019-05-05T10:57:27.278Z,26.51
2019-05-05T10:59:54.065Z,34.45
2019-05-05T11:02:20.843Z,34.35
2019-05-05T11:04:47.606Z,37.71
2019-05-05T11:07:14.787Z,39.01
2019-05-05T11:09:41.660Z,37.28
2019-05-05T11:12:08.349Z,33.88
2019-05-05T11:14:35.124Z,33.88
2019-05-05T11:17:04.113Z,30.66
2019-05-05T11:19:30.872Z,27.85
2019-05-05T11:21:57.458Z,22.46
2019-05-05T11:24:24.153Z,21.59
2019-05-05T11:26:50.853Z,20.51
2019-05-05T11:29:17.419Z,24.30
2019-05-05T11:31:44.124Z,28.72
2019-05-05T11:34:18.784Z,29.75
2019-05-05T11:37:01.030Z,33.23
2019-05-05T11:39:27.817Z,34.18
2019-05-05T11:41:54.927Z,35.01
2019-05-05T11:44:21.772Z,30.77
2019-05-05T11:46:48.940Z,24.70
2019-05-05T11:49:15.603Z,21.15
2019-05-05T11:51:43.656Z,18.84
2019-05-05T11:54:10.739Z,19.04
2019-05-05T11:56:37.391Z,21.66
2019-05-05T11:59:04.196Z,23.75
2019-05-05T12:01:30.865Z,26.82
2019-05-05T12:03:57.550Z,26.40
2019-05-05T12:06:24.752Z,28.12
2019-05-05T12:08:51.386Z,28.90
2019-05-05T12:11:18.063Z,29.38
2019-05-05T12:13:44.902Z,28.94
2019-05-05T12:16:13.741Z,27.68
2019-05-05T12:18:40.596Z,28.78
2019-05-05T12:21:07.361Z,28.19
2019-05-05T12:23:34.313Z,28.55
2019-05-05T12:26:26.411Z,30.63
2019-05-05T12:29:01.097Z,29.16
2019-05-05T12:31:28.427Z,29.61
2019-05-05T12:33:55.191Z,30.62
2019-05-05T12:36:23.670Z,29.95
2019-05-05T12:38:50.788Z,29.72
2019-05-05T12:41:20.773Z,27.13
2019-05-05T12:43:46.298Z,23.16
2019-05-05T12:46:33.715Z,19.13
2019-05-05T12:49:01.941Z,16.71
2019-05-05T12:51:28.608Z,14.06
2019-05-05T12:53:55.434Z,18.39
2019-05-05T12:56:23.799Z,21.58
2019-05-05T12:58:50.798Z,23.62
2019-05-05T13:01:24.662Z,24.93
2019-05-05T13:03:51.442Z,29.11
2019-05-05T13:06:18.202Z,24.53
2019-05-05T13:08:45.011Z,21.57
2019-05-05T13:11:11.770Z,23.45
2019-05-05T13:13:38.454Z,27.28
2019-05-05T13:16:05.202Z,26.30
2019-05-05T13:18:33.943Z,27.54
2019-05-05T13:21:23.954Z,29.73
2019-05-05T13:24:04.375Z,26.46
2019-05-05T13:26:49.322Z,25.05
2019-05-05T13:29:16.471Z,30.87
2019-05-05T13:31:44.181Z,29.45
2019-05-05T13:34:11.032Z,29.67
2019-05-05T13:36:37.724Z,30.97
2019-05-05T13:39:06.282Z,31.62
2019-05-05T13:41:34.024Z,32.23
2019-05-05T13:44:04.478Z,31.17
2019-05-05T13:46:33.798Z,31.39
2019-05-05T13:49:20.270Z,32.32
2019-05-05T13:51:47.074Z,28.93
2019-05-05T13:54:13.757Z,24.40
2019-05-05T13:56:40.334Z,21.24
2019-05-05T13:59:06.991Z,24.10
2019-05-05T14:01:34.233Z,25.82
2019-05-05T14:04:00.988Z,27.61
2019-05-05T14:06:27.653Z,27.49
2019-05-05T14:08:54.340Z,25.79
2019-05-05T14:11:21.128Z,22.68
2019-05-05T14:13:48.479Z,18.32
2019-05-05T14:16:15.398Z,17.08
2019-05-05T14:18:45.131Z,16.66
2019-05-05T14:21:13.926Z,18.78
2019-05-05T14:23:58.133Z,21.81
2019-05-05T14:26:28.273Z,22.56
2019-05-05T14:28:53.674Z,23.29
2019-05-05T14:31:24.815Z,23.54
2019-05-05T14:33:54.793Z,25.08
2019-05-05T14:36:45.947Z,27.64
2019-05-05T14:39:14.777Z,27.94
2019-05-05T14:41:41.602Z,29.43
2019-05-05T14:44:09.342Z,27.27
2019-05-05T14:46:36.019Z,25.35
2019-05-05T14:49:05.367Z,25.98
2019-05-05T14:51:31.487Z,27.64
2019-05-05T14:53:58.182Z,31.18
2019-05-05T14:56:35.770Z,31.13
2019-05-05T14:58:54.311Z,32.06
2019-05-05T15:01:21.262Z,32.91
2019-05-05T15:03:48.019Z,33.61
2019-05-05T15:06:34.507Z,36.32
2019-05-05T15:09:24.662Z,38.17
2019-05-05T15:12:03.889Z,39.17
2019-05-05T15:14:30.616Z,39.66
2019-05-05T15:16:57.372Z,39.32
2019-05-05T15:19:24.238Z,41.58
2019-05-05T15:21:50.848Z,44.38
2019-05-05T15:24:17.642Z,45.29
2019-05-05T15:26:51.934Z,48.03
2019-05-05T15:29:12.895Z,48.23
2019-05-05T15:31:39.674Z,48.09
2019-05-05T15:34:06.337Z,46.91
2019-05-05T15:36:33.457Z,45.71
2019-05-05T15:39:00.224Z,44.86
2019-05-05T15:41:27.030Z,43.06
2019-05-05T15:43:54.355Z,40.17
2019-05-05T15:46:21.186Z,38.08
2019-05-05T15:48:47.857Z,37.97
2019-05-05T15:51:14.594Z,34.70
2019-05-05T15:53:41.342Z,31.17
2019-05-05T15:56:08.024Z,30.65
2019-05-05T15:58:34.686Z,27.87
2019-05-05T16:01:01.391Z,26.73
2019-05-05T16:03:29.838Z,25.15
2019-05-05T16:05:56.622Z,23.20
2019-05-05T16:08:23.388Z,19.86
2019-05-05T16:10:50.170Z,19.64
2019-05-05T16:13:16.840Z,19.68
2019-05-05T16:15:58.492Z,22.28
2019-05-05T16:18:35.532Z,24.36
2019-05-05T16:21:08.962Z,25.19
2019-05-05T16:23:40.595Z,26.45
2019-05-05T16:26:07.384Z,27.57
2019-05-05T16:28:34.351Z,28.25
2019-05-05T16:31:01.038Z,28.58
2019-05-05T16:33:27.702Z,29.05
2019-05-05T16:35:54.383Z,30.61
2019-05-05T16:38:20.963Z,31.29
2019-05-05T16:40:47.781Z,31.39
2019-05-05T16:43:16.608Z,33.06
2019-05-05T16:45:44.485Z,33.51
2019-05-05T16:48:11.496Z,34.10
2019-05-05T16:50:38.104Z,33.47
2019-05-05T16:53:05.071Z,35.62
2019-05-05T16:55:39.190Z,34.78
2019-05-05T16:58:06.693Z,36.61
2019-05-05T17:00:34.611Z,35.97
2019-05-05T17:03:01.211Z,36.10
2019-05-05T17:05:27.975Z,34.78
2019-05-05T17:07:55.635Z,36.56
2019-05-05T17:10:24.427Z,36.04
2019-05-05T17:12:51.460Z,35.76
2019-05-05T17:15:35.465Z,36.03
2019-05-05T17:18:32.491Z,36.06
2019-05-05T17:21:04.185Z,36.21
2019-05-05T17:23:31.222Z,36.44
2019-05-05T17:25:58.060Z,36.83
2019-05-05T17:28:24.734Z,36.68
2019-05-05T17:30:51.515Z,36.67
2019-05-05T17:33:18.186Z,36.79
2019-05-05T17:35:44.969Z,36.72
2019-05-05T17:38:14.307Z,37.76
2019-05-05T17:41:03.767Z,38.71
2019-05-05T17:43:59.065Z,39.29
2019-05-05T17:46:33.668Z,40.69
2019-05-05T17:49:16.860Z,41.85
2019-05-05T17:51:47.709Z,42.88
2019-05-05T17:54:26.727Z,42.86
2019-05-05T17:56:55.031Z,43.45
2019-05-05T17:59:23.562Z,44.49
2019-05-05T18:01:50.458Z,45.13
2019-05-05T18:04:17.111Z,45.21
2019-05-05T18:07:04.118Z,45.83
2019-05-05T18:09:50.485Z,46.00
2019-05-05T18:12:39.566Z,46.96
2019-05-05T18:15:08.461Z,47.34
2019-05-05T18:17:37.421Z,47.17
2019-05-05T18:20:21.561Z,47.65
2019-05-05T18:22:48.958Z,47.86
2019-05-05T18:25:15.770Z,48.52
2019-05-05T18:27:42.420Z,48.56
2019-05-05T18:30:09.481Z,48.74
2019-05-05T18:32:36.186Z,49.77
2019-05-05T18:35:06.416Z,49.48
2019-05-05T18:37:31.609Z,49.78
2019-05-05T18:39:58.289Z,50.10
2019-05-05T18:42:25.002Z,51.38
2019-05-05T18:44:55.879Z,52.38
2019-05-05T18:47:24.863Z,53.75
2019-05-05T18:49:51.366Z,54.01
2019-05-05T18:52:18.152Z,54.17
2019-05-05T18:54:46.231Z,54.69
2019-05-05T18:57:13.359Z,55.43
2019-05-05T18:59:40.119Z,56.46
2019-05-05T19:02:34.540Z,57.14
2019-05-05T19:05:23.560Z,57.87
2019-05-05T19:07:55.981Z,54.71
2019-05-05T19:10:24.234Z,55.41
2019-05-05T19:12:51.174Z,55.78
2019-05-05T19:15:17.978Z,56.25
2019-05-05T19:17:44.764Z,55.29
2019-05-05T19:20:31.076Z,56.42
2019-05-05T19:23:03.593Z,56.52
2019-05-05T19:25:30.318Z,55.87
2019-05-05T19:27:56.983Z,55.58
2019-05-05T19:30:25.700Z,55.80
2019-05-05T19:32:54.176Z,56.59
2019-05-05T19:35:21.041Z,55.99
2019-05-05T19:37:47.890Z,54.84
2019-05-05T19:40:14.674Z,55.38
2019-05-05T19:42:41.410Z,55.36
2019-05-05T19:45:08.314Z,55.76
2019-05-05T19:47:35.118Z,56.37
2019-05-05T19:50:34.448Z,56.58
2019-05-05T19:53:04.371Z,56.08
2019-05-05T19:55:33.793Z,57.58
2019-05-05T19:58:03.460Z,59.30
2019-05-05T20:00:31.283Z,59.83
2019-05-05T20:03:04.415Z,60.72
2019-05-05T20:05:26.662Z,61.14
2019-05-05T20:07:55.206Z,62.24
2019-05-05T20:10:22.039Z,62.82
2019-05-05T20:12:48.731Z,63.52
2019-05-05T20:15:22.610Z,63.91
2019-05-05T20:17:49.398Z,64.06
2019-05-05T20:20:16.185Z,64.60
2019-05-05T20:22:44.449Z,65.46
2019-05-05T20:25:13.827Z,64.79
2019-05-05T20:27:40.462Z,64.79
2019-05-05T20:30:07.768Z,64.90
2019-05-05T20:32:50.211Z,64.70
2019-05-05T20:35:42.277Z,65.00
2019-05-05T20:38:14.170Z,65.38
2019-05-05T20:40:44.331Z,65.87
2019-05-05T20:43:14.441Z,65.87
2019-05-05T20:45:41.126Z,66.65
2019-05-05T20:48:07.928Z,66.50
2019-05-05T20:50:34.705Z,66.80
2019-05-05T20:53:02.164Z,66.91
2019-05-05T20:55:28.737Z,66.82
2019-05-05T20:57:55.591Z,67.17
2019-05-05T21:00:23.884Z,67.80
2019-05-05T21:02:50.560Z,68.18
2019-05-05T21:05:18.657Z,68.94
2019-05-05T21:07:45.500Z,69.26
2019-05-05T21:10:14.440Z,68.54
2019-05-05T21:12:42.667Z,68.06
2019-05-05T21:15:12.934Z,67.72
2019-05-05T21:17:38.786Z,67.73
2019-05-05T21:20:05.596Z,67.25
2019-05-05T21:22:44.250Z,66.34
2019-05-05T21:25:25.754Z,65.34
2019-05-05T21:27:52.852Z,65.48
2019-05-05T21:30:19.653Z,65.17
2019-05-05T21:32:46.350Z,65.06
2019-05-05T21:35:14.275Z,64.48
2019-05-05T21:37:40.883Z,64.48
2019-05-05T21:40:07.688Z,64.58
2019-05-05T21:42:35.001Z,65.02
2019-05-05T21:45:04.497Z,65.45
2019-05-05T21:47:30.485Z,64.90
2019-05-05T21:49:57.077Z,64.69
2019-05-05T21:52:42.038Z,64.06
2019-05-05T21:55:27.196Z,63.96
2019-05-05T21:58:13.618Z,63.79
2019-05-05T22:00:58.648Z,63.25
2019-05-05T22:03:34.652Z,63.49
2019-05-05T22:06:03.548Z,64.18
2019-05-05T22:08:30.074Z,64.44
2019-05-05T22:10:56.837Z,64.59
2019-05-05T22:13:23.612Z,64.44
2019-05-05T22:15:50.203Z,64.27
2019-05-05T22:18:16.975Z,64.58
2019-05-05T22:20:49.160Z,65.07
2019-05-05T22:23:15.938Z,65.43
2019-05-05T22:25:43.797Z,66.16
2019-05-05T22:28:10.534Z,66.42
2019-05-05T22:30:37.316Z,66.60
2019-05-05T22:33:05.971Z,66.98
2019-05-05T22:35:34.361Z,66.99
2019-05-05T22:38:01.348Z,67.14
2019-05-05T22:40:28.137Z,67.39
2019-05-05T22:42:54.937Z,66.96
2019-05-05T22:45:23.631Z,66.26
2019-05-05T22:47:50.356Z,66.23
2019-05-05T22:50:17.339Z,65.82
2019-05-05T22:52:44.689Z,65.39
2019-05-05T22:55:13.882Z,64.86
2019-05-05T22:57:40.589Z,65.55
2019-05-05T23:00:25.305Z,64.98
2019-05-05T23:02:44.564Z,65.06
2019-05-05T23:05:19.350Z,64.62
2019-05-05T23:07:46.113Z,63.67
2019-05-05T23:10:14.093Z,63.29
2019-05-05T23:12:40.969Z,63.98
2019-05-05T23:15:07.814Z,64.26
2019-05-05T23:17:43.822Z,64.29
2019-05-05T23:20:24.643Z,64.07
2019-05-05T23:23:14.568Z,65.12
2019-05-05T23:25:45.786Z,66.41
2019-05-05T23:28:14.621Z,66.33
2019-05-05T23:30:42.498Z,66.32
2019-05-05T23:33:15.777Z,66.58
2019-05-05T23:35:43.708Z,67.03
2019-05-05T23:38:10.542Z,67.12
2019-05-05T23:40:39.485Z,67.95
2019-05-05T23:43:06.154Z,68.30
2019-05-05T23:45:34.092Z,68.30
2019-05-05T23:48:00.859Z,68.88
2019-05-05T23:50:27.658Z,69.70
2019-05-05T23:52:54.840Z,69.76
2019-05-05T23:55:23.836Z,69.65
2019-05-05T23:57:50.462Z,69.23
